createdAt,value
2019-01-20T00:02:15.686Z,84.47
2019-01-20T00:04:44.474Z,84.47
2019-01-20T00:07:13.263Z,84.37
2019-01-20T00:09:42.174Z,84.20
2019-01-20T00:12:11.526Z,84.30
2019-01-20T00:14:40.420Z,84.08
2019-01-20T00:17:09.488Z,84.02
2019-01-20T00:19:38.690Z,83.93
2019-01-20T00:22:07.729Z,83.95
2019-01-20T00:24:36.663Z,83.78
2019-01-20T00:27:05.829Z,84.28
2019-01-20T00:29:35.123Z,84.09
2019-01-20T00:32:03.980Z,84.09
2019-01-20T00:34:32.774Z,84.03
2019-01-20T00:37:01.563Z,84.45
2019-01-20T00:39:30.431Z,84.60
2019-01-20T00:41:59.459Z,84.62
2019-01-20T00:44:28.300Z,84.39
2019-01-20T00:46:57.400Z,84.14
2019-01-20T00:49:26.408Z,84.57
2019-01-20T00:51:55.499Z,84.63
2019-01-20T00:54:24.528Z,84.56
2019-01-20T00:56:53.474Z,84.36
2019-01-20T00:59:22.730Z,84.12
2019-01-20T01:01:52.024Z,83.97
2019-01-20T01:04:21.134Z,83.99
2019-01-20T01:06:50.054Z,83.94
2019-01-20T01:09:19.142Z,83.87
2019-01-20T01:11:48.011Z,83.79
2019-01-20T01:14:38.271Z,83.63
2019-01-20T01:17:07.322Z,83.76
2019-01-20T01:19:36.439Z,84.04
2019-01-20T01:22:08.318Z,84.39
2019-01-20T01:24:37.181Z,83.63
2019-01-20T01:27:12.069Z,83.09
2019-01-20T01:29:46.287Z,83.56
2019-01-20T01:32:15.364Z,83.70
2019-01-20T01:34:44.243Z,83.59
2019-01-20T01:37:13.290Z,83.68
2019-01-20T01:39:42.658Z,83.38
2019-01-20T01:42:11.520Z,83.90
2019-01-20T01:44:40.945Z,84.38
2019-01-20T01:47:10.070Z,84.09
2019-01-20T01:49:38.856Z,83.99
2019-01-20T01:52:07.790Z,83.96
2019-01-20T01:54:36.961Z,83.87
2019-01-20T01:57:05.961Z,83.56
2019-01-20T01:59:34.880Z,83.32
2019-01-20T02:02:03.741Z,83.41
2019-01-20T02:04:32.578Z,83.70
2019-01-20T02:07:01.609Z,83.52
2019-01-20T02:09:30.538Z,83.03
2019-01-20T02:11:59.501Z,83.49
2019-01-20T02:14:28.278Z,83.44
2019-01-20T02:16:57.190Z,83.32
2019-01-20T02:19:26.309Z,82.92
2019-01-20T02:21:55.124Z,83.62
2019-01-20T02:24:23.902Z,83.52
2019-01-20T02:26:53.313Z,83.62
2019-01-20T02:29:22.241Z,83.77
2019-01-20T02:31:51.079Z,83.77
2019-01-20T02:34:19.946Z,83.49
2019-01-20T02:36:48.743Z,83.34
2019-01-20T02:39:17.552Z,83.50
2019-01-20T02:41:46.319Z,83.44
2019-01-20T02:44:15.235Z,83.28
2019-01-20T02:46:44.038Z,84.05
2019-01-20T02:49:12.840Z,83.31
2019-01-20T02:51:41.619Z,83.17
2019-01-20T02:54:10.429Z,83.17
2019-01-20T02:56:39.263Z,83.13
2019-01-20T02:59:08.359Z,83.14
2019-01-20T03:01:37.431Z,83.58
2019-01-20T03:04:06.468Z,83.36
2019-01-20T03:06:38.342Z,83.21
2019-01-20T03:09:09.284Z,83.11
2019-01-20T03:11:38.472Z,83.32
2019-01-20T03:14:13.610Z,83.36
2019-01-20T03:16:42.642Z,83.16
2019-01-20T03:19:11.599Z,83.16
2019-01-20T03:21:40.471Z,83.11
2019-01-20T03:24:09.257Z,82.98
2019-01-20T03:26:38.212Z,82.82
2019-01-20T03:29:08.346Z,83.06
2019-01-20T03:31:37.162Z,83.30
2019-01-20T03:34:06.077Z,83.15
2019-01-20T03:36:34.883Z,83.17
2019-01-20T03:39:05.453Z,83.22
2019-01-20T03:41:34.243Z,83.44
2019-01-20T03:44:03.652Z,83.01
2019-01-20T03:46:32.512Z,82.89
2019-01-20T03:49:01.313Z,82.86
2019-01-20T03:51:30.106Z,82.88
2019-01-20T03:53:58.981Z,82.86
2019-01-20T03:56:27.951Z,83.15
2019-01-20T03:58:56.819Z,82.92
2019-01-20T04:01:25.766Z,83.30
2019-01-20T04:03:54.805Z,84.17
2019-01-20T04:06:23.614Z,84.11
2019-01-20T04:08:52.720Z,83.47
2019-01-20T04:11:21.623Z,83.66
2019-01-20T04:13:50.411Z,84.04
2019-01-20T04:16:19.994Z,83.55
2019-01-20T04:18:49.018Z,84.00
2019-01-20T04:21:18.142Z,84.61
2019-01-20T04:23:46.970Z,84.26
2019-01-20T04:26:15.760Z,84.50
2019-01-20T04:28:44.663Z,84.17
2019-01-20T04:31:13.457Z,84.38
2019-01-20T04:33:42.767Z,84.56
2019-01-20T04:36:11.656Z,84.56
2019-01-20T04:38:40.668Z,85.32
2019-01-20T04:41:09.838Z,84.90
2019-01-20T04:43:38.693Z,85.07
2019-01-20T04:46:07.589Z,85.01
2019-01-20T04:48:36.668Z,84.99
2019-01-20T04:51:05.597Z,85.26
2019-01-20T04:53:34.606Z,84.95
2019-01-20T04:56:03.786Z,85.12
2019-01-20T04:58:32.743Z,85.45
2019-01-20T05:01:01.543Z,85.92
2019-01-20T05:03:30.380Z,85.98
2019-01-20T05:05:59.283Z,86.31
2019-01-20T05:08:28.179Z,86.44
2019-01-20T05:10:57.184Z,86.37
2019-01-20T05:13:26.012Z,86.20
2019-01-20T05:15:54.807Z,86.29
2019-01-20T05:18:24.138Z,86.50
2019-01-20T05:20:52.987Z,86.24
2019-01-20T05:23:22.154Z,86.34
2019-01-20T05:25:50.909Z,86.44
2019-01-20T05:28:20.073Z,86.41
2019-01-20T05:30:49.134Z,86.25
2019-01-20T05:33:18.011Z,86.66
2019-01-20T05:35:47.033Z,87.05
2019-01-20T05:38:15.843Z,86.49
2019-01-20T05:40:45.373Z,86.41
2019-01-20T05:43:14.167Z,86.47
2019-01-20T05:45:43.071Z,86.41
2019-01-20T05:48:11.924Z,86.61
2019-01-20T05:50:40.999Z,86.48
2019-01-20T05:53:10.052Z,86.51
2019-01-20T05:55:38.853Z,86.77
2019-01-20T05:58:07.656Z,86.62
2019-01-20T06:00:36.809Z,86.77
2019-01-20T06:03:05.715Z,87.23
2019-01-20T06:05:34.788Z,87.39
2019-01-20T06:08:03.681Z,87.54
2019-01-20T06:10:33.056Z,87.34
2019-01-20T06:13:02.257Z,87.42
2019-01-20T06:15:32.195Z,87.53
2019-01-20T06:18:01.050Z,88.05
2019-01-20T06:20:30.092Z,88.22
2019-01-20T06:22:59.153Z,87.97
2019-01-20T06:25:28.497Z,88.29
2019-01-20T06:27:57.649Z,88.54
2019-01-20T06:30:31.973Z,88.33
2019-01-20T06:33:00.933Z,88.40
2019-01-20T06:35:30.101Z,88.31
2019-01-20T06:37:59.344Z,88.47
2019-01-20T06:40:28.134Z,88.70
2019-01-20T06:43:01.646Z,89.31
2019-01-20T06:45:27.581Z,89.33
2019-01-20T06:47:56.691Z,89.56
2019-01-20T06:50:25.484Z,89.78
2019-01-20T06:52:54.555Z,89.56
2019-01-20T06:55:23.595Z,89.34
2019-01-20T06:57:52.510Z,89.52
2019-01-20T07:00:22.880Z,89.46
2019-01-20T07:02:51.990Z,89.58
2019-01-20T07:05:21.105Z,89.48
2019-01-20T07:07:50.271Z,89.67
2019-01-20T07:10:19.312Z,89.68
2019-01-20T07:12:48.187Z,89.84
2019-01-20T07:15:22.139Z,89.50
2019-01-20T07:17:51.070Z,89.66
2019-01-20T07:20:20.116Z,89.99
2019-01-20T07:22:49.340Z,90.06
2019-01-20T07:25:18.461Z,89.77
2019-01-20T07:27:47.871Z,89.55
2019-01-20T07:30:18.759Z,89.77
2019-01-20T07:32:47.726Z,90.34
2019-01-20T07:35:17.051Z,90.29
2019-01-20T07:37:46.198Z,90.41
2019-01-20T07:40:17.034Z,90.20
2019-01-20T07:42:45.828Z,90.12
2019-01-20T07:45:15.408Z,90.11
2019-01-20T07:47:44.299Z,90.26
2019-01-20T07:50:15.687Z,90.14
2019-01-20T07:58:09.030Z,90.13
2019-01-20T08:00:38.036Z,89.95
2019-01-20T08:03:09.850Z,89.83
2019-01-20T08:05:39.221Z,89.88
2019-01-20T08:08:08.288Z,89.83
2019-01-20T08:10:40.400Z,89.88
2019-01-20T08:13:09.444Z,89.95
2019-01-20T08:15:38.705Z,90.05
2019-01-20T08:18:07.669Z,90.03
2019-01-20T08:20:44.976Z,90.11
2019-01-20T08:23:14.102Z,90.12
2019-01-20T08:25:42.998Z,90.48
2019-01-20T08:28:11.898Z,90.28
2019-01-20T08:30:40.812Z,90.40
2019-01-20T08:33:10.100Z,90.43
2019-01-20T08:35:39.115Z,90.22
2019-01-20T08:38:08.355Z,90.45
2019-01-20T08:40:37.459Z,90.50
2019-01-20T08:43:08.930Z,90.30
2019-01-20T08:46:14.149Z,90.35
2019-01-20T08:48:43.790Z,90.06
2019-01-20T08:51:14.199Z,89.98
2019-01-20T08:53:43.053Z,90.00
2019-01-20T08:56:12.016Z,90.37
2019-01-20T08:58:41.306Z,90.53
2019-01-20T09:01:10.613Z,90.75
2019-01-20T09:03:41.014Z,90.77
2019-01-20T09:06:10.047Z,90.37
2019-01-20T09:08:38.849Z,90.58
2019-01-20T09:11:08.115Z,90.32
2019-01-20T09:13:39.753Z,90.18
2019-01-20T09:16:08.229Z,90.33
2019-01-20T09:18:37.325Z,90.44
2019-01-20T09:21:06.551Z,90.27
2019-01-20T09:23:35.326Z,90.14
2019-01-20T09:26:04.471Z,90.18
2019-01-20T09:28:33.585Z,90.22
2019-01-20T09:31:02.548Z,90.49
2019-01-20T09:33:31.321Z,90.32
2019-01-20T09:36:02.911Z,90.54
2019-01-20T09:38:32.748Z,90.63
2019-01-20T09:41:06.255Z,90.46
2019-01-20T09:43:36.545Z,90.49
2019-01-20T09:46:10.479Z,90.81
2019-01-20T09:48:42.152Z,91.03
2019-01-20T09:51:13.306Z,90.99
2019-01-20T09:53:42.395Z,90.76
2019-01-20T09:56:11.449Z,90.83
2019-01-20T09:58:41.160Z,90.96
2019-01-20T10:01:15.783Z,91.16
2019-01-20T10:03:44.799Z,90.94
2019-01-20T10:06:13.784Z,90.72
2019-01-20T10:08:43.183Z,90.53
2019-01-20T10:11:12.104Z,90.11
2019-01-20T10:13:41.050Z,90.41
2019-01-20T10:16:10.024Z,90.58
2019-01-20T10:18:38.913Z,90.23
2019-01-20T10:21:07.785Z,90.17
2019-01-20T10:23:36.626Z,89.62
2019-01-20T10:26:05.601Z,89.84
2019-01-20T10:28:34.396Z,89.20
2019-01-20T10:31:06.263Z,89.35
2019-01-20T10:33:35.158Z,89.24
2019-01-20T10:36:05.947Z,88.87
2019-01-20T10:38:37.221Z,88.73
2019-01-20T10:41:05.852Z,88.48
2019-01-20T10:43:34.828Z,88.56
2019-01-20T10:46:03.958Z,88.73
2019-01-20T10:48:33.166Z,88.29
2019-01-20T10:51:02.112Z,88.25
2019-01-20T10:53:32.070Z,87.86
2019-01-20T10:56:00.995Z,87.70
2019-01-20T10:58:30.226Z,87.38
2019-01-20T11:00:59.732Z,87.61
2019-01-20T11:03:29.017Z,87.58
2019-01-20T11:05:57.895Z,87.10
2019-01-20T11:08:30.318Z,86.30
2019-01-20T11:11:02.548Z,86.42
2019-01-20T11:13:32.105Z,85.95
2019-01-20T11:16:02.429Z,86.07
2019-01-20T11:18:31.686Z,86.57
2019-01-20T11:21:00.992Z,86.28
2019-01-20T11:23:32.455Z,85.68
2019-01-20T11:26:03.631Z,85.33
2019-01-20T11:28:35.326Z,85.31
2019-01-20T11:31:09.317Z,85.26
2019-01-20T11:33:38.406Z,84.57
2019-01-20T11:36:07.325Z,84.20
2019-01-20T11:38:36.372Z,84.41
2019-01-20T11:41:06.237Z,84.60
2019-01-20T11:43:35.288Z,84.42
2019-01-20T11:46:04.174Z,84.23
2019-01-20T11:48:33.211Z,83.96
2019-01-20T11:51:02.400Z,83.65
2019-01-20T11:53:31.221Z,83.44
2019-01-20T11:56:00.012Z,82.66
2019-01-20T11:58:28.800Z,83.10
2019-01-20T12:00:57.921Z,82.81
2019-01-20T12:03:26.751Z,83.13
2019-01-20T12:05:55.525Z,82.71
2019-01-20T12:08:30.539Z,81.73
2019-01-20T12:10:55.697Z,81.74
2019-01-20T12:13:28.163Z,81.26
2019-01-20T12:15:56.949Z,81.20
2019-01-20T12:18:25.873Z,80.86
2019-01-20T12:20:55.244Z,80.69
2019-01-20T12:23:24.095Z,80.06
2019-01-20T12:25:53.306Z,80.65
2019-01-20T12:28:36.206Z,80.15
2019-01-20T12:31:05.652Z,80.46
2019-01-20T12:33:34.483Z,79.22
2019-01-20T12:36:04.060Z,79.51
2019-01-20T12:38:33.078Z,78.96
2019-01-20T12:41:01.869Z,78.20
2019-01-20T12:43:30.652Z,78.81
2019-01-20T12:46:08.474Z,79.01
2019-01-20T12:48:37.311Z,78.50
2019-01-20T12:51:06.332Z,78.47
2019-01-20T12:53:35.155Z,77.74
2019-01-20T12:56:04.119Z,78.04
2019-01-20T12:58:32.984Z,77.98
2019-01-20T13:01:02.902Z,77.49
2019-01-20T13:03:33.082Z,78.12
2019-01-20T13:06:02.573Z,78.46
2019-01-20T13:08:31.876Z,78.06
2019-01-20T13:11:00.888Z,78.56
2019-01-20T13:13:29.742Z,78.27
2019-01-20T13:15:59.840Z,78.21
2019-01-20T13:18:28.666Z,77.79
2019-01-20T13:20:57.965Z,78.50
2019-01-20T13:23:26.969Z,78.16
2019-01-20T13:25:56.081Z,77.20
2019-01-20T13:28:24.849Z,76.13
2019-01-20T13:30:53.884Z,78.03
2019-01-20T13:33:22.929Z,78.59
2019-01-20T13:35:52.407Z,77.84
2019-01-20T13:38:22.539Z,77.88
2019-01-20T13:41:13.886Z,78.06
2019-01-20T13:43:45.223Z,78.66
2019-01-20T13:46:15.080Z,78.76
2019-01-20T13:48:44.200Z,79.60
2019-01-20T13:51:13.144Z,79.18
2019-01-20T13:53:42.064Z,78.90
2019-01-20T13:56:11.082Z,79.12
2019-01-20T13:58:40.982Z,78.60
2019-01-20T14:01:09.749Z,79.02
2019-01-20T14:03:38.615Z,80.29
2019-01-20T14:06:07.879Z,80.53
2019-01-20T14:08:44.025Z,80.69
2019-01-20T14:11:07.512Z,81.16
2019-01-20T14:13:36.371Z,80.60
2019-01-20T14:16:05.508Z,80.40
2019-01-20T14:18:34.387Z,80.93
2019-01-20T14:21:03.328Z,81.58
2019-01-20T14:23:32.392Z,81.88
2019-01-20T14:26:01.229Z,82.07
2019-01-20T14:28:30.110Z,82.05
2019-01-20T14:30:58.910Z,82.57
2019-01-20T14:33:27.802Z,82.71
2019-01-20T14:35:56.729Z,82.87
2019-01-20T14:38:25.521Z,82.92
2019-01-20T14:40:54.538Z,83.30
2019-01-20T14:43:23.432Z,83.37
2019-01-20T14:45:52.648Z,83.86
2019-01-20T14:48:21.511Z,84.14
2019-01-20T14:50:50.405Z,84.44
2019-01-20T14:53:19.305Z,84.61
2019-01-20T14:55:48.671Z,84.97
2019-01-20T14:58:17.477Z,85.10
2019-01-20T15:00:46.281Z,84.72
2019-01-20T15:03:15.077Z,85.36
2019-01-20T15:05:44.042Z,84.92
2019-01-20T15:08:12.891Z,84.76
2019-01-20T15:10:41.782Z,84.62
2019-01-20T15:13:10.835Z,84.81
2019-01-20T15:15:40.980Z,84.83
2019-01-20T15:18:10.148Z,84.76
2019-01-20T15:20:39.851Z,85.07
2019-01-20T15:23:08.925Z,85.16
2019-01-20T15:25:37.955Z,85.69
2019-01-20T15:28:07.529Z,85.05
2019-01-20T15:30:36.497Z,84.94
2019-01-20T15:33:06.425Z,84.96
2019-01-20T15:35:35.348Z,85.06
2019-01-20T15:38:04.319Z,85.36
2019-01-20T15:40:33.183Z,85.19
2019-01-20T15:43:05.276Z,85.10
2019-01-20T15:45:34.172Z,85.81
2019-01-20T15:48:03.014Z,86.35
2019-01-20T15:50:33.003Z,86.15
2019-01-20T15:53:02.086Z,85.83
2019-01-20T15:55:31.335Z,86.07
2019-01-20T15:58:00.429Z,86.08
2019-01-20T16:00:30.894Z,86.15
2019-01-20T16:02:59.845Z,85.86
2019-01-20T16:05:29.393Z,85.38
2019-01-20T16:07:58.812Z,85.11
2019-01-20T16:10:28.152Z,84.73
2019-01-20T16:12:57.001Z,84.79
2019-01-20T16:15:31.368Z,84.87
2019-01-20T16:18:00.359Z,85.03
2019-01-20T16:20:30.574Z,85.42
2019-01-20T16:22:59.647Z,85.33
2019-01-20T16:25:30.431Z,85.59
2019-01-20T16:27:59.386Z,85.70
2019-01-20T16:30:33.506Z,85.21
2019-01-20T16:33:02.617Z,85.69
2019-01-20T16:35:32.241Z,85.77
2019-01-20T16:38:01.741Z,85.89
2019-01-20T16:40:31.300Z,86.41
2019-01-20T16:43:00.274Z,86.54
2019-01-20T16:45:42.844Z,87.73
2019-01-20T16:48:12.388Z,87.32
2019-01-20T16:50:41.356Z,87.65
2019-01-20T16:53:10.918Z,87.31
2019-01-20T16:55:39.874Z,87.25
2019-01-20T16:58:08.886Z,88.99
2019-01-20T17:00:40.480Z,88.58
2019-01-20T17:03:09.545Z,88.41
2019-01-20T17:05:38.405Z,88.86
2019-01-20T17:08:08.087Z,88.79
2019-01-20T17:10:39.260Z,88.16
2019-01-20T17:13:09.181Z,88.36
2019-01-20T17:15:40.890Z,87.92
2019-01-20T17:18:11.459Z,88.81
2019-01-20T17:20:40.624Z,88.23
2019-01-20T17:23:09.575Z,88.31
2019-01-20T17:25:38.638Z,88.59
2019-01-20T17:28:07.605Z,89.15
2019-01-20T17:30:36.667Z,88.69
2019-01-20T17:33:06.302Z,88.48
2019-01-20T17:35:35.490Z,88.57
2019-01-20T17:38:04.504Z,88.19
2019-01-20T17:40:33.255Z,88.18
2019-01-20T17:43:02.213Z,89.02
2019-01-20T17:45:33.400Z,88.65
2019-01-20T17:48:06.469Z,88.71
2019-01-20T17:50:36.589Z,88.66
2019-01-20T17:53:06.964Z,88.80
2019-01-20T17:55:42.274Z,88.45
2019-01-20T17:58:13.164Z,88.67
2019-01-20T18:00:48.131Z,89.12
2019-01-20T18:03:17.220Z,89.52
2019-01-20T18:05:48.793Z,89.19
2019-01-20T18:08:17.943Z,89.66
2019-01-20T18:10:47.048Z,89.72
2019-01-20T18:13:15.834Z,89.56
2019-01-20T18:15:54.094Z,89.29
2019-01-20T18:18:18.276Z,88.96
2019-01-20T18:20:47.340Z,89.54
2019-01-20T18:23:16.215Z,89.69
2019-01-20T18:32:39.706Z,89.62
2019-01-20T18:35:09.576Z,89.49
2019-01-20T18:37:38.534Z,89.73
2019-01-20T18:40:11.119Z,89.87
2019-01-20T18:42:41.701Z,89.63
2019-01-20T18:45:12.141Z,89.46
2019-01-20T18:47:41.195Z,89.65
2019-01-20T18:50:12.000Z,89.95
2019-01-20T18:52:41.255Z,89.67
2019-01-20T18:55:11.948Z,89.32
2019-01-20T18:57:41.208Z,90.08
2019-01-20T19:00:28.024Z,89.72
2019-01-20T19:02:57.211Z,89.42
2019-01-20T19:05:26.121Z,89.71
2019-01-20T19:07:55.622Z,89.73
2019-01-20T19:10:24.590Z,90.04
2019-01-20T19:12:53.837Z,89.58
2019-01-20T19:15:23.315Z,90.61
2019-01-20T19:17:52.511Z,90.84
2019-01-20T19:20:22.611Z,91.12
2019-01-20T19:22:53.488Z,90.98
2019-01-20T19:25:25.911Z,91.13
2019-01-20T19:27:55.989Z,90.31
2019-01-20T19:30:30.310Z,90.30
2019-01-20T19:32:59.709Z,90.61
2019-01-20T19:35:28.790Z,90.93
2019-01-20T19:37:58.079Z,90.94
2019-01-20T19:40:27.134Z,91.14
2019-01-20T19:42:56.370Z,90.98
2019-01-20T19:45:25.545Z,91.64
2019-01-20T19:47:54.728Z,91.51
2019-01-20T19:50:24.001Z,91.71
2019-01-20T19:52:53.207Z,91.33
2019-01-20T19:55:24.396Z,91.09
2019-01-20T19:57:53.504Z,90.96
2019-01-20T20:00:23.766Z,91.51
2019-01-20T20:02:52.860Z,91.21
2019-01-20T20:05:22.094Z,90.90
2019-01-20T20:10:36.627Z,91.71
2019-01-20T20:13:07.189Z,91.10
2019-01-20T20:15:36.240Z,90.59
2019-01-20T20:18:12.349Z,90.48
2019-01-20T20:21:14.562Z,91.01
2019-01-20T20:24:14.027Z,90.75
2019-01-20T20:26:44.633Z,90.96
2019-01-20T20:32:37.096Z,90.47
2019-01-20T20:35:19.324Z,90.66
2019-01-20T20:38:01.110Z,90.70
2019-01-20T20:40:33.498Z,91.22
2019-01-20T20:44:12.497Z,91.56
2019-01-20T20:52:27.457Z,91.24
2019-01-20T20:53:22.326Z,91.14
2019-01-20T21:03:31.094Z,90.91
2019-01-20T21:06:59.086Z,90.92
2019-01-20T21:09:48.050Z,91.01
2019-01-20T21:15:03.392Z,91.06
2019-01-20T21:17:36.219Z,91.01
2019-01-20T21:20:23.762Z,91.06
2019-01-20T21:23:02.038Z,91.52
2019-01-20T21:25:51.965Z,91.66
2019-01-20T21:28:28.908Z,91.32
2019-01-20T21:31:04.671Z,91.48
2019-01-20T21:33:35.123Z,91.83
2019-01-20T21:36:10.087Z,92.26
2019-01-20T21:39:07.467Z,92.22
2019-01-20T21:44:56.581Z,92.19
2019-01-20T21:47:31.497Z,91.95
2019-01-20T21:50:04.319Z,92.08
2019-01-20T21:52:34.723Z,91.79
2019-01-20T21:55:10.306Z,91.94
2019-01-20T21:57:40.806Z,91.72
2019-01-20T22:00:12.433Z,91.42
2019-01-20T22:02:44.343Z,91.87
2019-01-20T22:05:18.414Z,92.14
2019-01-20T22:07:47.763Z,92.00
2019-01-20T22:10:19.573Z,91.76
2019-01-20T22:12:49.730Z,92.50
2019-01-20T22:15:18.606Z,92.46
2019-01-20T22:17:47.861Z,92.17
2019-01-20T22:20:18.747Z,92.18
2019-01-20T22:22:51.063Z,92.42
2019-01-20T22:25:20.033Z,92.86
2019-01-20T22:27:48.984Z,92.91
2019-01-20T22:30:27.482Z,92.53
2019-01-20T22:32:56.539Z,92.37
2019-01-20T22:35:25.695Z,92.20
2019-01-20T22:37:54.666Z,92.82
2019-01-20T22:40:23.857Z,92.57
2019-01-20T22:42:52.737Z,92.18
2019-01-20T22:45:26.602Z,91.97
2019-01-20T22:47:55.536Z,91.91
2019-01-20T22:50:24.606Z,91.77
2019-01-20T22:52:53.654Z,91.75
2019-01-20T22:55:22.792Z,92.17
2019-01-20T22:57:51.720Z,92.18
2019-01-20T23:00:48.373Z,92.36
2019-01-20T23:03:17.503Z,91.92
2019-01-20T23:05:46.545Z,91.70
2019-01-20T23:08:15.465Z,91.36
2019-01-20T23:10:44.400Z,91.37
2019-01-20T23:13:13.417Z,91.02
2019-01-20T23:15:42.731Z,91.02
2019-01-20T23:18:11.729Z,91.06
2019-01-20T23:20:40.627Z,91.30
2019-01-20T23:23:09.658Z,91.51
2019-01-20T23:25:38.533Z,90.90
2019-01-20T23:28:07.337Z,90.92
2019-01-20T23:30:36.557Z,91.13
2019-01-20T23:33:05.803Z,90.93
2019-01-20T23:35:34.777Z,90.86
2019-01-20T23:38:03.587Z,90.79
2019-01-20T23:40:32.862Z,91.31
2019-01-20T23:43:02.017Z,91.40
2019-01-20T23:45:30.824Z,91.68
2019-01-20T23:47:59.647Z,91.12
2019-01-20T23:50:28.489Z,91.34
2019-01-20T23:52:57.298Z,90.63
2019-01-20T23:55:27.742Z,90.56
2019-01-20T23:57:56.825Z,91.01
